Time;durP1;ratioP1;P1;durP2;ratioP2;P2;SDS_P1;SDS_P2;PMS_P1;PMS_P2;Temp;Humidity;BMP_temperature;BMP_pressure;BME280_temperature;BME280_humidity;BME280_pressure;Samples;Min_cycle;Max_cycle;Signal;HPM_P1;HPM_P2
2023/03/24 00:00:12;;;;;;;1.60;1.50;;;10.50;99.90;;;;;;7400320;19;20332;-80
2023/03/24 00:02:40;;;;;;;1.55;1.45;;;10.50;99.90;;;;;;7401165;19;20308;-76
2023/03/24 00:05:09;;;;;;;1.85;1.40;;;10.50;99.90;;;;;;7402242;19;20311;-81
2023/03/24 00:07:41;;;;;;;1.40;1.30;;;10.50;99.90;;;;;;7401376;19;20352;-83
2023/03/24 00:10:08;;;;;;;1.40;1.27;;;10.60;99.90;;;;;;7403286;19;20316;-77
2023/03/24 00:12:41;;;;;;;2.72;2.17;;;10.60;99.90;;;;;;7401021;19;20325;-87
2023/03/24 00:15:12;;;;;;;2.97;1.90;;;10.60;99.90;;;;;;7401921;19;20301;-79
2023/03/24 00:17:38;;;;;;;3.15;2.10;;;10.50;99.90;;;;;;7400070;19;20296;-79
2023/03/24 00:20:06;;;;;;;1.77;1.48;;;10.60;99.90;;;;;;7401909;19;20332;-78
2023/03/24 00:22:33;;;;;;;1.45;1.35;;;10.50;99.90;;;;;;7401462;19;20354;-82
2023/03/24 00:24:58;;;;;;;1.50;1.40;;;10.50;99.90;;;;;;7401853;19;20320;-80
2023/03/24 00:27:24;;;;;;;2.72;1.50;;;10.50;99.90;;;;;;7401741;19;20343;-80
2023/03/24 00:29:50;;;;;;;1.50;1.40;;;10.50;99.90;;;;;;7402994;19;20353;-79
2023/03/24 00:32:16;;;;;;;1.50;1.40;;;10.40;99.90;;;;;;7399054;19;20300;-77
2023/03/24 00:34:42;;;;;;;1.80;1.48;;;10.30;99.90;;;;;;7401074;19;20885;-85
2023/03/24 00:37:07;;;;;;;1.40;1.30;;;10.30;99.90;;;;;;7400861;19;20396;-79
2023/03/24 00:39:33;;;;;;;1.45;1.35;;;10.30;99.90;;;;;;7401367;19;20316;-80
2023/03/24 00:42:00;;;;;;;1.52;1.35;;;10.30;99.90;;;;;;7399375;19;20429;-78
2023/03/24 00:44:29;;;;;;;1.52;1.42;;;10.30;99.90;;;;;;7400631;19;20543;-82
2023/03/24 00:46:55;;;;;;;1.58;1.48;;;10.30;99.90;;;;;;7400445;19;20325;-82
2023/03/24 00:49:40;;;;;;;1.57;1.47;;;10.30;99.90;;;;;;7402071;19;20376;-84
2023/03/24 00:52:16;;;;;;;1.90;1.48;;;10.20;99.90;;;;;;7399697;19;20300;-78
2023/03/24 00:54:44;;;;;;;1.70;1.60;;;10.30;99.90;;;;;;7400303;19;20329;-80
2023/03/24 00:57:11;;;;;;;1.55;1.45;;;10.20;99.90;;;;;;7400385;19;20320;-82
2023/03/24 00:59:41;;;;;;;1.25;1.25;;;10.20;99.90;;;;;;7401408;19;20341;-80
2023/03/24 01:02:10;;;;;;;1.40;1.30;;;10.10;99.90;;;;;;7397698;19;20369;-81
2023/03/24 01:04:38;;;;;;;1.42;1.17;;;10.20;99.90;;;;;;7399755;19;20347;-78
2023/03/24 01:07:09;;;;;;;1.40;1.30;;;10.10;99.90;;;;;;7402700;19;20342;-77
2023/03/24 01:09:36;;;;;;;1.23;1.13;;;10.10;99.90;;;;;;7400055;19;20341;-85
2023/03/24 01:12:03;;;;;;;1.00;1.00;;;10.00;99.90;;;;;;7400168;19;20707;-82
2023/03/24 01:14:29;;;;;;;1.30;1.20;;;10.00;99.90;;;;;;7399139;19;20320;-81
2023/03/24 01:16:56;;;;;;;1.92;1.23;;;10.10;99.90;;;;;;7400747;19;20453;-84
2023/03/24 01:19:21;;;;;;;1.27;1.20;;;10.10;99.90;;;;;;7398423;19;20321;-78
2023/03/24 01:21:49;;;;;;;1.30;1.20;;;10.00;99.90;;;;;;7398726;19;20344;-82
2023/03/24 01:24:15;;;;;;;1.33;1.23;;;10.00;99.90;;;;;;7398636;19;20838;-77
2023/03/24 01:26:42;;;;;;;1.70;1.23;;;10.00;99.90;;;;;;7400634;19;20431;-80
2023/03/24 01:29:07;;;;;;;1.27;1.17;;;10.10;99.90;;;;;;7399830;19;20337;-79
2023/03/24 01:31:33;;;;;;;1.05;1.02;;;10.10;99.90;;;;;;7398806;19;20335;-81
2023/03/24 01:33:59;;;;;;;1.20;1.20;;;10.10;99.90;;;;;;7398474;19;20357;-78
2023/03/24 01:36:24;;;;;;;1.40;1.30;;;10.10;99.90;;;;;;7393956;19;20324;-79
2023/03/24 01:38:50;;;;;;;1.10;1.10;;;10.10;99.90;;;;;;7399861;19;20325;-84
2023/03/24 01:41:16;;;;;;;1.40;1.30;;;10.10;99.90;;;;;;7397475;19;20308;-78
2023/03/24 01:43:42;;;;;;;1.40;1.10;;;10.10;99.90;;;;;;7397417;19;20353;-80
2023/03/24 01:46:21;;;;;;;1.25;1.23;;;10.10;99.90;;;;;;7397921;19;20917;-78
2023/03/24 01:48:58;;;;;;;1.05;1.05;;;10.10;99.90;;;;;;7295577;19;2004195;-80
2023/03/24 01:51:35;;;;;;;1.20;1.10;;;10.20;99.90;;;;;;7396077;19;20320;-80
2023/03/24 01:54:26;;;;;;;1.30;1.20;;;10.30;99.90;;;;;;7398092;19;20866;-81
2023/03/24 01:57:17;;;;;;;1.35;1.25;;;10.30;99.90;;;;;;7295865;19;2004382;-81
2023/03/24 01:59:46;;;;;;;1.08;1.08;;;10.30;99.90;;;;;;7401380;19;20887;-81
2023/03/24 02:02:34;;;;;;;1.55;1.45;;;10.40;99.90;;;;;;7294066;19;2004143;-80
2023/03/24 02:05:03;;;;;;;1.20;1.20;;;10.40;99.90;;;;;;7398330;19;20331;-81
2023/03/24 02:07:51;;;;;;;1.40;1.30;;;10.40;99.90;;;;;;7397601;19;20324;-81
2023/03/24 02:10:18;;;;;;;1.20;1.20;;;10.40;99.90;;;;;;7294506;19;2004661;-81
2023/03/24 02:12:44;;;;;;;1.70;1.40;;;10.40;99.90;;;;;;7399978;19;20327;-84
2023/03/24 02:15:11;;;;;;;1.10;1.10;;;10.50;99.90;;;;;;7406995;19;20423;-82
2023/03/24 02:18:17;;;;;;;1.20;1.10;;;10.50;99.90;;;;;;7405597;19;20325;-80
2023/03/24 02:20:52;;;;;;;1.30;1.20;;;10.50;99.90;;;;;;7201605;19;2004502;-85
2023/03/24 02:23:37;;;;;;;1.70;1.30;;;10.60;99.90;;;;;;7303417;19;2004459;-86
2023/03/24 02:26:44;;;;;;;1.60;1.50;;;10.60;99.90;;;;;;7406933;19;20351;-81
2023/03/24 02:29:38;;;;;;;1.42;1.33;;;10.70;99.90;;;;;;7301847;19;2004166;-82
2023/03/24 02:32:25;;;;;;;1.05;1.05;;;10.80;99.90;;;;;;7300175;19;2004635;-82
2023/03/24 02:35:06;;;;;;;1.15;1.15;;;10.80;99.90;;;;;;7304274;19;2004559;-83
2023/03/24 02:37:58;;;;;;;1.30;1.20;;;10.80;99.90;;;;;;7404965;19;20309;-79
2023/03/24 02:40:44;;;;;;;1.75;1.40;;;10.80;99.90;;;;;;7302686;19;2004197;-86
2023/03/24 02:43:32;;;;;;;1.67;1.47;;;10.90;99.90;;;;;;7405794;19;20639;-80
2023/03/24 02:46:06;;;;;;;1.30;1.20;;;10.90;99.90;;;;;;7303591;19;2004418;-80
2023/03/24 02:48:57;;;;;;;4.80;1.43;;;10.90;99.90;;;;;;7406670;19;20325;-79
2023/03/24 02:51:35;;;;;;;1.60;1.50;;;11.00;99.90;;;;;;7301686;19;2004388;-79
2023/03/24 02:54:07;;;;;;;1.60;1.50;;;11.00;99.90;;;;;;7407009;19;20340;-80
2023/03/24 02:56:49;;;;;;;1.40;1.30;;;11.10;99.90;;;;;;7408261;19;20321;-80
2023/03/24 02:59:39;;;;;;;1.40;1.30;;;11.10;99.90;;;;;;7302687;19;2004348;-80
2023/03/24 03:02:26;;;;;;;1.90;1.42;;;11.10;99.90;;;;;;7301635;19;2004332;-85
2023/03/24 03:05:07;;;;;;;1.67;1.50;;;11.10;99.90;;;;;;7405726;19;20341;-78
2023/03/24 03:07:36;;;;;;;1.50;1.40;;;11.20;99.90;;;;;;7405632;19;20321;-86
2023/03/24 03:10:26;;;;;;;1.65;1.35;;;11.20;99.90;;;;;;7406179;19;20448;-80
2023/03/24 03:12:53;;;;;;;1.50;1.40;;;11.20;99.90;;;;;;7303287;19;2004365;-79
2023/03/24 03:15:21;;;;;;;2.25;1.80;;;11.30;99.90;;;;;;7407098;19;20311;-79
2023/03/24 03:17:52;;;;;;;1.60;1.50;;;11.20;99.90;;;;;;7407281;19;20372;-79
2023/03/24 03:20:20;;;;;;;2.37;1.57;;;11.20;99.90;;;;;;7405651;19;20307;-81
2023/03/24 03:22:49;;;;;;;1.58;1.38;;;11.30;99.90;;;;;;7405735;19;21487;-79
2023/03/24 03:25:17;;;;;;;2.53;1.70;;;11.30;99.90;;;;;;7407561;19;20380;-84
2023/03/24 03:27:43;;;;;;;1.98;1.80;;;11.20;99.90;;;;;;7407288;19;20340;-81
2023/03/24 03:30:17;;;;;;;1.57;1.47;;;11.30;99.90;;;;;;7404938;19;20302;-86
2023/03/24 03:32:52;;;;;;;1.48;1.38;;;11.30;99.90;;;;;;7406160;19;20309;-77
2023/03/24 03:35:37;;;;;;;1.90;1.73;;;11.30;99.90;;;;;;7302622;19;2004805;-87
2023/03/24 03:38:21;;;;;;;3.20;1.70;;;11.40;99.90;;;;;;7405214;19;20870;-79
2023/03/24 03:40:50;;;;;;;1.70;1.60;;;11.40;99.90;;;;;;7301092;19;2004350;-80
2023/03/24 03:43:18;;;;;;;1.90;1.58;;;11.40;99.90;;;;;;7402212;19;20321;-82
2023/03/24 03:45:44;;;;;;;2.03;1.73;;;11.40;99.90;;;;;;7405266;19;20443;-80
2023/03/24 03:48:10;;;;;;;1.70;1.60;;;11.40;99.90;;;;;;7404188;19;20297;-82
2023/03/24 03:50:37;;;;;;;1.90;1.80;;;11.50;99.90;;;;;;7403621;19;20320;-81
2023/03/24 03:53:05;;;;;;;1.80;1.70;;;11.50;99.90;;;;;;7403522;19;20364;-82
2023/03/24 03:55:31;;;;;;;2.23;2.03;;;11.50;99.90;;;;;;7404956;19;20313;-79
2023/03/24 03:57:57;;;;;;;1.60;1.50;;;11.60;99.90;;;;;;7404417;19;20313;-77
2023/03/24 04:00:34;;;;;;;2.53;1.87;;;11.60;99.90;;;;;;7400910;19;20883;-79
2023/03/24 04:03:31;;;;;;;2.03;1.88;;;11.60;99.90;;;;;;7300444;19;2004170;-80
2023/03/24 04:06:07;;;;;;;3.97;2.38;;;11.70;99.90;;;;;;7405126;19;20340;-77
2023/03/24 04:08:47;;;;;;;5.10;2.90;;;11.70;99.90;;;;;;7403267;19;20365;-83
2023/03/24 04:11:43;;;;;;;2.78;2.50;;;11.80;99.90;;;;;;7299768;19;2004351;-81
2023/03/24 04:14:49;;;;;;;1.77;1.67;;;11.90;99.90;;;;;;7301515;19;2004524;-77
2023/03/24 04:17:44;;;;;;;1.63;1.50;;;11.80;99.90;;;;;;7302817;19;2004408;-81
2023/03/24 04:20:23;;;;;;;2.20;1.90;;;11.80;99.90;;;;;;7405063;19;20317;-78
2023/03/24 04:23:08;;;;;;;1.90;1.80;;;11.80;99.90;;;;;;7298763;19;2004532;-81
2023/03/24 04:25:44;;;;;;;1.80;1.70;;;11.80;99.90;;;;;;7407589;19;20345;-85
2023/03/24 04:28:25;;;;;;;1.70;1.60;;;11.70;99.90;;;;;;7405687;19;20338;-81
2023/03/24 04:31:00;;;;;;;1.53;1.43;;;11.70;99.90;;;;;;7302530;19;2004693;-79
2023/03/24 04:33:50;;;;;;;2.30;1.80;;;11.70;99.90;;;;;;7403888;19;20317;-83
2023/03/24 04:36:28;;;;;;;4.40;3.10;;;11.70;99.90;;;;;;7298603;19;2004144;-77
2023/03/24 04:39:15;;;;;;;2.75;1.90;;;11.70;99.90;;;;;;7402207;19;20330;-81
2023/03/24 04:41:47;;;;;;;2.83;1.80;;;11.60;99.90;;;;;;7295964;19;2004306;-80
2023/03/24 04:44:22;;;;;;;2.10;1.90;;;11.60;99.90;;;;;;7396037;19;20329;-82
2023/03/24 04:47:06;;;;;;;2.03;1.90;;;11.60;99.90;;;;;;7399914;19;20335;-82
2023/03/24 04:49:35;;;;;;;2.30;1.80;;;11.50;99.90;;;;;;7400643;19;20309;-76
2023/03/24 04:52:02;;;;;;;2.00;1.80;;;11.50;99.90;;;;;;7396711;19;20324;-78
2023/03/24 04:54:32;;;;;;;1.75;1.65;;;11.50;99.90;;;;;;7396576;19;20321;-77
2023/03/24 04:57:04;;;;;;;2.07;1.90;;;11.50;99.90;;;;;;7397031;19;20364;-82
2023/03/24 04:59:45;;;;;;;2.07;1.93;;;11.40;99.90;;;;;;7394054;19;20326;-82
2023/03/24 05:02:11;;;;;;;2.83;2.35;;;11.40;99.90;;;;;;7394149;19;20320;-84
2023/03/24 05:04:51;;;;;;;2.15;1.95;;;11.40;99.90;;;;;;7295649;19;2004723;-77
2023/03/24 05:07:22;;;;;;;1.92;1.70;;;11.50;99.90;;;;;;7398668;19;20857;-81
2023/03/24 05:09:52;;;;;;;2.60;1.95;;;11.50;99.90;;;;;;7378754;19;20384;-79
2023/03/24 05:12:17;;;;;;;2.17;1.80;;;11.50;99.90;;;;;;7397340;19;20341;-83
2023/03/24 05:15:08;;;;;;;1.80;1.70;;;11.50;99.90;;;;;;7396920;19;20463;-82
2023/03/24 05:17:36;;;;;;;2.17;1.97;;;11.50;99.90;;;;;;7395937;19;20320;-87
2023/03/24 05:20:07;;;;;;;1.70;1.60;;;11.60;99.90;;;;;;7397144;19;20320;-81
2023/03/24 05:22:34;;;;;;;2.83;2.08;;;11.50;99.90;;;;;;7392972;19;20662;-87
2023/03/24 05:25:00;;;;;;;3.70;1.70;;;11.50;99.90;;;;;;7395370;19;20357;-86
2023/03/24 05:27:25;;;;;;;1.75;1.65;;;11.50;99.90;;;;;;7397495;19;20312;-85
2023/03/24 05:29:51;;;;;;;3.13;1.70;;;11.60;99.90;;;;;;7396616;19;20370;-89
2023/03/24 05:32:21;;;;;;;1.90;1.80;;;11.60;99.90;;;;;;7397083;19;20329;-91
2023/03/24 05:34:47;;;;;;;2.08;1.90;;;11.60;99.90;;;;;;7399424;19;20365;-87
2023/03/24 05:37:16;;;;;;;1.88;1.77;;;11.60;99.90;;;;;;7399801;19;20308;-90
2023/03/24 05:39:44;;;;;;;2.13;1.92;;;11.70;99.90;;;;;;7402718;19;20980;-85
2023/03/24 05:42:31;;;;;;;2.08;1.88;;;11.70;99.90;;;;;;7298257;19;2004616;-82
2023/03/24 05:44:59;;;;;;;1.80;1.70;;;11.70;99.90;;;;;;7392777;19;20884;-78
2023/03/24 05:47:26;;;;;;;2.05;1.95;;;11.70;99.90;;;;;;7395698;19;20671;-77
2023/03/24 05:49:52;;;;;;;2.75;2.47;;;11.70;99.90;;;;;;7404932;19;20325;-79
2023/03/24 05:52:19;;;;;;;2.23;1.83;;;11.80;99.90;;;;;;7406031;19;20739;-78
2023/03/24 05:54:50;;;;;;;1.80;1.70;;;11.80;99.90;;;;;;7405249;19;20355;-79
2023/03/24 05:57:20;;;;;;;2.10;1.90;;;11.80;99.90;;;;;;7402931;19;20304;-76
2023/03/24 06:00:22;;;;;;;1.90;1.80;;;11.80;99.90;;;;;;7298423;19;2004510;-81
2023/03/24 06:02:53;;;;;;;2.58;1.92;;;11.80;99.90;;;;;;7401197;19;20336;-78
2023/03/24 06:05:37;;;;;;;2.05;1.70;;;11.80;99.90;;;;;;7383983;19;21614;-78
2023/03/24 06:08:03;;;;;;;2.10;1.90;;;11.80;99.90;;;;;;7394737;19;20370;-80
2023/03/24 06:10:31;;;;;;;2.05;1.95;;;11.90;99.90;;;;;;7396562;19;20944;-78
2023/03/24 06:12:59;;;;;;;2.05;1.92;;;11.90;99.90;;;;;;7399306;19;20366;-79
2023/03/24 06:15:26;;;;;;;2.17;1.85;;;11.90;99.90;;;;;;7398136;19;20329;-78
2023/03/24 06:17:54;;;;;;;2.85;1.90;;;11.80;99.90;;;;;;7399082;19;20348;-76
2023/03/24 06:20:28;;;;;;;3.58;1.95;;;11.80;99.90;;;;;;7397025;19;20323;-76
2023/03/24 06:23:01;;;;;;;4.27;2.60;;;11.80;99.90;;;;;;7394049;19;20337;-77
2023/03/24 06:25:34;;;;;;;2.83;2.20;;;11.80;99.90;;;;;;7398115;19;20332;-80
2023/03/24 06:28:13;;;;;;;2.00;1.90;;;11.80;99.90;;;;;;7400050;19;20344;-81
2023/03/24 06:30:42;;;;;;;2.42;1.88;;;11.70;99.90;;;;;;7399489;19;20419;-78
2023/03/24 06:33:10;;;;;;;2.78;2.03;;;11.80;99.90;;;;;;7399219;19;20313;-84
2023/03/24 06:35:36;;;;;;;3.25;1.90;;;11.80;99.90;;;;;;7371905;19;20796;-82
2023/03/24 06:38:06;;;;;;;2.10;2.00;;;11.90;99.90;;;;;;7399936;19;20767;-82
2023/03/24 06:40:32;;;;;;;1.85;1.60;;;12.00;99.90;;;;;;7398437;19;20404;-81
2023/03/24 06:42:58;;;;;;;2.03;1.93;;;12.00;99.90;;;;;;7397882;19;21209;-80
2023/03/24 06:45:24;;;;;;;1.88;1.77;;;12.00;99.90;;;;;;7400518;19;20321;-80
2023/03/24 06:47:56;;;;;;;1.95;1.83;;;12.00;99.90;;;;;;7399131;19;20397;-80
2023/03/24 06:50:25;;;;;;;2.42;1.85;;;12.10;99.90;;;;;;7398341;19;20325;-81
2023/03/24 06:52:54;;;;;;;1.75;1.65;;;12.10;99.90;;;;;;7397330;19;20356;-79
2023/03/24 06:55:21;;;;;;;1.67;1.58;;;12.00;99.90;;;;;;7400554;19;20349;-80
2023/03/24 06:57:49;;;;;;;3.10;1.90;;;12.00;99.90;;;;;;7399603;19;20312;-81
2023/03/24 07:00:24;;;;;;;2.58;1.88;;;12.00;99.90;;;;;;7395248;19;20815;-83
2023/03/24 07:03:01;;;;;;;2.27;1.90;;;12.10;99.90;;;;;;7396136;19;20344;-84
2023/03/24 07:05:27;;;;;;;2.60;2.40;;;12.20;99.90;;;;;;7399568;19;20464;-80
2023/03/24 07:07:52;;;;;;;2.80;2.42;;;12.20;99.90;;;;;;7397579;19;20357;-79
2023/03/24 07:10:47;;;;;;;2.53;2.00;;;12.30;99.90;;;;;;7293031;19;2004491;-79
2023/03/24 07:13:13;;;;;;;3.10;2.60;;;12.40;99.90;;;;;;7397162;19;20329;-79
2023/03/24 07:15:39;;;;;;;2.33;2.13;;;12.40;99.90;;;;;;7398886;19;20316;-81
2023/03/24 07:18:05;;;;;;;2.27;2.00;;;12.50;99.90;;;;;;7397127;19;20729;-82
2023/03/24 07:20:43;;;;;;;3.10;2.20;;;12.50;99.90;;;;;;7396731;19;20696;-79
2023/03/24 07:23:12;;;;;;;2.00;1.90;;;12.60;99.90;;;;;;7396953;19;20345;-79
2023/03/24 07:25:47;;;;;;;2.30;2.10;;;12.70;99.90;;;;;;7295655;19;2004345;-81
2023/03/24 07:28:38;;;;;;;3.03;2.10;;;12.70;99.90;;;;;;7395755;19;20324;-77
2023/03/24 07:31:05;;;;;;;2.25;2.05;;;12.80;99.90;;;;;;7394636;19;20352;-79
2023/03/24 07:33:32;;;;;;;2.60;2.30;;;12.90;99.90;;;;;;7394019;19;20363;-78
2023/03/24 07:35:58;;;;;;;3.05;2.70;;;13.10;99.90;;;;;;7395355;19;20317;-78
2023/03/24 07:38:25;;;;;;;4.13;2.30;;;13.20;99.90;;;;;;7393299;19;20327;-80
2023/03/24 07:40:53;;;;;;;6.10;3.60;;;13.30;99.90;;;;;;7391766;19;20349;-79
2023/03/24 07:43:19;;;;;;;2.40;2.20;;;13.30;99.90;;;;;;7390210;19;20322;-81
2023/03/24 07:45:47;;;;;;;3.23;2.67;;;13.40;99.90;;;;;;7394524;19;20328;-78
2023/03/24 07:48:13;;;;;;;7.07;2.35;;;13.50;99.90;;;;;;7394720;19;20364;-81
2023/03/24 07:50:39;;;;;;;2.33;2.10;;;13.50;99.90;;;;;;7395700;19;20305;-78
2023/03/24 07:53:24;;;;;;;3.60;2.10;;;13.50;99.90;;;;;;7290144;19;2004367;-77
2023/03/24 07:55:50;;;;;;;4.25;2.10;;;13.50;99.90;;;;;;7396368;19;20315;-80
2023/03/24 07:58:21;;;;;;;2.00;1.80;;;13.50;99.90;;;;;;7394484;19;20346;-77
2023/03/24 08:01:01;;;;;;;2.17;2.05;;;13.60;99.90;;;;;;7392569;19;20441;-80
2023/03/24 08:03:40;;;;;;;2.20;2.00;;;13.70;99.90;;;;;;7393176;19;20316;-80
2023/03/24 08:06:29;;;;;;;2.93;2.20;;;13.80;99.90;;;;;;7289351;19;2004541;-77
2023/03/24 08:08:57;;;;;;;4.22;2.10;;;13.90;99.90;;;;;;7392019;19;20328;-76
2023/03/24 08:11:25;;;;;;;2.00;1.80;;;14.00;99.90;;;;;;7390797;19;20321;-77
2023/03/24 08:13:50;;;;;;;2.42;2.22;;;14.10;99.90;;;;;;7396010;19;20345;-78
2023/03/24 08:16:16;;;;;;;3.60;1.80;;;14.20;99.90;;;;;;7394535;19;20345;-77
2023/03/24 08:18:41;;;;;;;2.07;1.80;;;14.30;99.90;;;;;;7393343;19;20320;-78
2023/03/24 08:21:07;;;;;;;3.28;2.15;;;14.40;99.90;;;;;;7391668;19;20357;-77
2023/03/24 08:23:34;;;;;;;2.05;1.90;;;14.40;99.90;;;;;;7392675;19;20375;-77
2023/03/24 08:26:06;;;;;;;2.60;2.05;;;14.40;99.90;;;;;;7394294;19;20345;-77
2023/03/24 08:28:31;;;;;;;2.08;1.90;;;14.40;99.90;;;;;;7392852;19;20392;-80
2023/03/24 08:30:57;;;;;;;3.22;1.92;;;14.40;99.90;;;;;;7390746;19;20362;-78
2023/03/24 08:33:23;;;;;;;3.00;2.10;;;14.40;99.90;;;;;;7400826;19;20941;-80
2023/03/24 08:35:56;;;;;;;2.30;1.90;;;14.40;99.90;;;;;;7407306;19;20372;-78
2023/03/24 08:38:22;;;;;;;2.10;1.88;;;14.40;99.90;;;;;;7393846;19;20325;-78
2023/03/24 08:40:49;;;;;;;2.07;1.90;;;14.50;99.90;;;;;;7391884;19;20313;-77
2023/03/24 08:43:19;;;;;;;3.47;2.03;;;14.50;99.90;;;;;;7392762;19;20315;-79
2023/03/24 08:45:45;;;;;;;2.60;2.20;;;14.60;99.90;;;;;;7394106;19;20379;-77
2023/03/24 08:48:11;;;;;;;2.47;2.10;;;14.60;99.90;;;;;;7392065;19;20320;-78
2023/03/24 08:50:38;;;;;;;2.72;2.10;;;14.70;99.90;;;;;;7391972;19;20347;-79
2023/03/24 08:53:04;;;;;;;3.03;2.28;;;14.70;99.90;;;;;;7390236;19;20364;-78
2023/03/24 08:55:29;;;;;;;3.60;2.50;;;14.70;99.90;;;;;;7388293;19;20328;-80
2023/03/24 08:57:55;;;;;;;2.30;2.10;;;14.80;99.90;;;;;;7390095;19;20348;-79
2023/03/24 09:00:21;;;;;;;2.20;2.00;;;14.80;99.90;;;;;;7386453;19;20330;-78
2023/03/24 09:02:51;;;;;;;2.37;1.80;;;14.80;99.90;;;;;;7388525;19;20331;-79
2023/03/24 09:05:18;;;;;;;2.30;2.03;;;14.90;99.90;;;;;;7388051;19;20312;-77
2023/03/24 09:07:43;;;;;;;2.13;1.90;;;14.90;99.90;;;;;;7389479;19;20321;-80
2023/03/24 09:10:09;;;;;;;2.60;1.92;;;15.00;99.90;;;;;;7389526;19;20300;-80
2023/03/24 09:12:35;;;;;;;2.43;1.90;;;15.00;99.90;;;;;;7386491;19;20325;-78
2023/03/24 09:15:01;;;;;;;1.90;1.80;;;15.10;99.90;;;;;;7387190;19;20315;-79
2023/03/24 09:17:27;;;;;;;1.70;1.60;;;15.10;99.90;;;;;;7387309;19;20324;-78
2023/03/24 09:19:53;;;;;;;2.97;1.70;;;15.20;99.90;;;;;;7387765;19;20726;-79
2023/03/24 09:22:19;;;;;;;1.50;1.30;;;15.30;99.90;;;;;;7386136;19;21143;-81
2023/03/24 09:24:47;;;;;;;1.60;1.50;;;15.30;99.90;;;;;;7391932;19;20324;-76
2023/03/24 09:27:14;;;;;;;1.90;1.67;;;15.20;99.90;;;;;;7393330;19;20983;-83
2023/03/24 09:29:39;;;;;;;1.77;1.50;;;15.20;99.90;;;;;;7393487;19;20665;-81
2023/03/24 09:32:05;;;;;;;1.70;1.60;;;15.20;99.90;;;;;;7389424;19;20348;-79
2023/03/24 09:34:32;;;;;;;2.92;1.60;;;15.10;99.90;;;;;;7390935;19;20301;-76
2023/03/24 09:36:59;;;;;;;1.50;1.40;;;15.10;99.90;;;;;;7393057;19;20865;-80
2023/03/24 09:39:24;;;;;;;1.95;1.75;;;15.10;99.90;;;;;;7395064;19;20343;-80
2023/03/24 09:41:50;;;;;;;2.03;1.50;;;15.10;99.90;;;;;;7395338;19;20364;-80
2023/03/24 09:44:32;;;;;;;1.70;1.60;;;15.20;99.90;;;;;;7402151;19;20341;-79
2023/03/24 09:47:04;;;;;;;1.83;1.70;;;15.20;99.90;;;;;;7299449;19;2004244;-80
2023/03/24 09:49:32;;;;;;;1.77;1.67;;;15.20;99.90;;;;;;7396620;19;20344;-79
2023/03/24 09:52:05;;;;;;;1.63;1.52;;;15.20;99.90;;;;;;7395421;19;20345;-79
2023/03/24 09:54:50;;;;;;;1.40;1.30;;;15.20;99.90;;;;;;7397980;19;20320;-79
2023/03/24 09:57:24;;;;;;;2.08;1.70;;;15.30;99.90;;;;;;7401538;19;20332;-82
2023/03/24 09:59:50;;;;;;;2.28;1.80;;;15.40;99.90;;;;;;7296660;19;2004527;-79
2023/03/24 10:02:17;;;;;;;1.80;1.70;;;15.40;99.90;;;;;;7387316;19;20340;-79
2023/03/24 10:04:43;;;;;;;1.85;1.75;;;15.40;99.90;;;;;;7394185;19;20312;-78
2023/03/24 10:07:24;;;;;;;1.60;1.50;;;15.40;99.90;;;;;;7401027;19;20308;-80
2023/03/24 10:10:00;;;;;;;2.07;1.87;;;15.40;99.90;;;;;;7289102;19;2004766;-81
2023/03/24 10:12:36;;;;;;;2.40;2.00;;;15.40;99.90;;;;;;7394362;19;20451;-79
2023/03/24 10:15:25;;;;;;;1.70;1.50;;;15.40;99.90;;;;;;7397988;19;20344;-79
2023/03/24 10:18:11;;;;;;;2.00;1.65;;;15.40;99.90;;;;;;7294897;19;2004387;-77
2023/03/24 10:21:13;;;;;;;2.15;1.70;;;15.30;99.90;;;;;;7395614;19;20336;-81
2023/03/24 10:23:56;;;;;;;1.60;1.50;;;15.40;99.90;;;;;;7291340;19;2011553;-80
2023/03/24 10:26:44;;;;;;;1.40;1.30;;;15.30;99.90;;;;;;7294532;19;2016829;-78
2023/03/24 10:29:18;;;;;;;2.55;1.50;;;15.20;99.90;;;;;;7396412;19;20348;-78
2023/03/24 10:32:00;;;;;;;1.48;1.20;;;15.10;99.90;;;;;;7394814;19;20336;-82
2023/03/24 10:34:31;;;;;;;2.00;1.33;;;15.10;99.90;;;;;;7293555;19;2004386;-83
2023/03/24 10:37:00;;;;;;;1.20;1.20;;;15.10;99.90;;;;;;7380604;19;20416;-80
2023/03/24 10:39:27;;;;;;;2.17;1.20;;;15.10;99.90;;;;;;7393310;19;20324;-78
2023/03/24 10:41:53;;;;;;;1.40;1.30;;;15.20;99.90;;;;;;7402919;19;20376;-80
2023/03/24 10:44:19;;;;;;;1.40;1.30;;;15.30;99.90;;;;;;7403938;19;20313;-79
2023/03/24 10:46:48;;;;;;;1.50;1.30;;;15.50;99.90;;;;;;7404803;19;20336;-79
2023/03/24 10:49:19;;;;;;;1.17;1.08;;;15.60;99.90;;;;;;7400420;19;20387;-79
2023/03/24 10:51:49;;;;;;;0.98;0.98;;;15.90;99.90;;;;;;7396714;19;20353;-80
2023/03/24 10:54:27;;;;;;;0.98;0.98;;;16.20;99.90;;;;;;7397198;19;20320;-79
2023/03/24 10:56:59;;;;;;;1.27;0.90;;;16.60;99.90;;;;;;7301327;19;2004709;-81
2023/03/24 10:59:31;;;;;;;1.45;1.08;;;16.70;99.90;;;;;;7405313;19;20331;-80
2023/03/24 11:02:08;;;;;;;1.10;1.00;;;16.60;99.90;;;;;;7405271;19;20363;-79
2023/03/24 11:04:33;;;;;;;1.02;1.00;;;16.60;99.90;;;;;;7402205;19;20309;-79
2023/03/24 11:07:03;;;;;;;0.90;0.90;;;16.60;99.90;;;;;;7403102;19;20344;-80
2023/03/24 11:09:35;;;;;;;1.00;1.00;;;16.80;99.90;;;;;;7403072;19;20332;-79
2023/03/24 11:12:03;;;;;;;1.17;1.10;;;16.80;99.90;;;;;;7399843;19;20462;-79
2023/03/24 11:14:31;;;;;;;1.13;1.03;;;16.80;99.90;;;;;;7400142;19;20313;-80
2023/03/24 11:17:18;;;;;;;1.10;1.00;;;16.90;99.90;;;;;;7378608;19;20344;-79
2023/03/24 11:19:56;;;;;;;1.50;1.10;;;16.80;99.90;;;;;;7347027;19;20669;-79
2023/03/24 11:22:22;;;;;;;1.30;1.20;;;16.80;99.90;;;;;;7281041;19;2004327;-79
2023/03/24 11:24:53;;;;;;;2.00;1.15;;;16.70;99.90;;;;;;7384302;19;20671;-78
2023/03/24 11:27:19;;;;;;;2.00;1.10;;;16.70;99.90;;;;;;7386597;19;20688;-80
2023/03/24 11:29:48;;;;;;;1.13;1.10;;;16.70;99.90;;;;;;7389841;19;20336;-79
2023/03/24 11:32:23;;;;;;;1.10;1.10;;;16.70;99.90;;;;;;7384256;19;20852;-79
2023/03/24 11:34:55;;;;;;;1.10;1.00;;;16.60;99.90;;;;;;7282775;19;2004670;-79
2023/03/24 11:37:22;;;;;;;2.45;1.50;;;16.80;99.90;;;;;;7385203;19;20313;-80
2023/03/24 11:40:15;;;;;;;0.90;0.90;;;16.80;99.90;;;;;;7385639;19;20952;-78
2023/03/24 11:42:51;;;;;;;0.97;0.97;;;16.80;99.90;;;;;;7384094;19;20317;-80
2023/03/24 11:45:40;;;;;;;1.10;1.10;;;16.80;99.90;;;;;;7385765;19;20313;-79
2023/03/24 11:48:38;;;;;;;0.90;0.90;;;16.80;99.90;;;;;;7283464;19;2004321;-79
2023/03/24 11:51:04;;;;;;;0.80;0.80;;;16.90;99.90;;;;;;7283130;19;2004228;-80
2023/03/24 11:53:39;;;;;;;2.03;1.08;;;17.00;99.90;;;;;;7382323;19;20365;-80
2023/03/24 11:56:29;;;;;;;1.20;1.10;;;17.00;99.90;;;;;;7364405;19;20332;-79
2023/03/24 11:59:26;;;;;;;0.90;0.90;;;17.10;99.90;;;;;;7282115;19;2004499;-80
2023/03/24 12:02:07;;;;;;;1.33;1.23;;;17.10;99.90;;;;;;7279858;19;2004204;-79
2023/03/24 12:04:50;;;;;;;1.00;1.00;;;17.10;99.90;;;;;;7384564;19;20397;-79
2023/03/24 12:07:52;;;;;;;1.20;1.10;;;17.10;99.90;;;;;;7367643;19;20317;-81
2023/03/24 12:10:36;;;;;;;1.20;1.10;;;17.20;99.90;;;;;;7183509;19;2004602;-79
2023/03/24 12:13:26;;;;;;;1.20;1.13;;;17.30;99.90;;;;;;7284693;19;2004510;-78
2023/03/24 12:16:12;;;;;;;1.63;1.52;;;17.40;99.90;;;;;;7287157;19;2004553;-82
2023/03/24 12:18:56;;;;;;;1.30;1.20;;;17.40;99.90;;;;;;7387904;19;20308;-79
2023/03/24 12:21:36;;;;;;;1.10;1.10;;;17.40;99.90;;;;;;7283447;19;2004456;-78
2023/03/24 12:24:25;;;;;;;1.05;1.00;;;17.40;99.90;;;;;;7387962;19;20349;-78
2023/03/24 12:26:52;;;;;;;1.40;1.30;;;17.30;99.90;;;;;;7272476;19;2004455;-81
2023/03/24 12:29:37;;;;;;;1.30;1.20;;;17.30;99.90;;;;;;7399971;19;20321;-82
2023/03/24 12:32:23;;;;;;;1.08;1.08;;;17.40;99.90;;;;;;7280617;19;2004205;-80
2023/03/24 12:35:40;;;;;;;0.98;0.98;;;17.40;99.90;;;;;;7298139;19;2004365;-80
2023/03/24 12:38:08;;;;;;;1.13;1.10;;;17.50;99.90;;;;;;7278098;19;2004427;-80
2023/03/24 12:41:00;;;;;;;1.15;1.05;;;17.60;99.90;;;;;;7395888;19;20420;-80
2023/03/24 12:43:36;;;;;;;1.10;1.00;;;17.30;99.90;;;;;;7287131;19;2004669;-79
2023/03/24 12:46:13;;;;;;;1.05;1.00;;;16.80;99.90;;;;;;7393538;19;20502;-79
2023/03/24 12:49:29;;;;;;;0.80;0.80;;;16.00;99.90;;;;;;7394086;19;20439;-77
2023/03/24 12:52:20;;;;;;;0.77;0.77;;;15.30;99.90;;;;;;7183119;19;2004540;-77
2023/03/24 12:55:03;;;;;;;0.85;0.80;;;14.60;99.90;;;;;;7393502;19;20384;-78
2023/03/24 12:57:33;;;;;;;1.00;1.00;;;14.10;99.90;;;;;;7292301;19;2004553;-79
2023/03/24 13:00:27;;;;;;;1.30;0.80;;;13.80;99.90;;;;;;7396085;19;20405;-79
2023/03/24 13:02:55;;;;;;;1.55;1.45;;;13.70;99.90;;;;;;7192928;19;2004634;-78
2023/03/24 13:05:25;;;;;;;2.13;1.60;;;13.50;99.90;;;;;;7398870;19;21048;-79
2023/03/24 13:07:53;;;;;;;1.30;1.00;;;13.50;99.90;;;;;;7399551;19;20316;-83
2023/03/24 13:10:26;;;;;;;0.80;0.80;;;13.30;99.90;;;;;;7405159;19;20293;-86
2023/03/24 13:13:13;;;;;;;0.90;0.90;;;13.30;99.90;;;;;;7409413;19;20311;-84
2023/03/24 13:15:44;;;;;;;1.00;0.80;;;13.20;99.90;;;;;;7411591;19;20348;-86